sensor_id;sensor_type;location;lat;lon;timestamp;P1;durP1;ratioP1;P2;durP2;ratioP2
43419;SDS011;29017;51.514;-0.178;2022-09-03T00:00:57;7.28;;;4.55;;
43419;SDS011;29017;51.514;-0.178;2022-09-03T00:03:36;7.30;;;4.72;;
43419;SDS011;29017;51.514;-0.178;2022-09-03T00:06:13;10.48;;;6.00;;
43419;SDS011;29017;51.514;-0.178;2022-09-03T00:12:09;14.10;;;7.53;;
43419;SDS011;29017;51.514;-0.178;2022-09-03T00:14:45;10.43;;;6.78;;
43419;SDS011;29017;51.514;-0.178;2022-09-03T00:17:19;12.73;;;7.35;;
43419;SDS011;29017;51.514;-0.178;2022-09-03T00:19:59;11.38;;;6.65;;
43419;SDS011;29017;51.514;-0.178;2022-09-03T00:22:48;12.68;;;7.05;;
43419;SDS011;29017;51.514;-0.178;2022-09-03T00:25:26;15.02;;;8.75;;
43419;SDS011;29017;51.514;-0.178;2022-09-03T00:28:00;12.15;;;7.68;;
43419;SDS011;29017;51.514;-0.178;2022-09-03T00:30:30;14.57;;;8.82;;
43419;SDS011;29017;51.514;-0.178;2022-09-03T00:33:03;10.95;;;8.18;;
43419;SDS011;29017;51.514;-0.178;2022-09-03T00:35:44;12.18;;;8.40;;
43419;SDS011;29017;51.514;-0.178;2022-09-03T00:38:15;15.52;;;9.90;;
43419;SDS011;29017;51.514;-0.178;2022-09-03T00:48:41;16.48;;;9.32;;
43419;SDS011;29017;51.514;-0.178;2022-09-03T00:51:26;13.63;;;9.52;;
43419;SDS011;29017;51.514;-0.178;2022-09-03T00:54:14;12.77;;;9.32;;
43419;SDS011;29017;51.514;-0.178;2022-09-03T01:05:26;18.60;;;10.80;;
43419;SDS011;29017;51.514;-0.178;2022-09-03T01:18:48;15.70;;;10.68;;
43419;SDS011;29017;51.514;-0.178;2022-09-03T01:21:37;15.10;;;10.30;;
43419;SDS011;29017;51.514;-0.178;2022-09-03T01:27:29;15.73;;;10.80;;
43419;SDS011;29017;51.514;-0.178;2022-09-03T01:30:10;16.85;;;11.02;;
43419;SDS011;29017;51.514;-0.178;2022-09-03T01:35:55;18.23;;;11.90;;
43419;SDS011;29017;51.514;-0.178;2022-09-03T01:38:58;17.90;;;11.38;;
43419;SDS011;29017;51.514;-0.178;2022-09-03T01:50:18;22.08;;;13.25;;
43419;SDS011;29017;51.514;-0.178;2022-09-03T01:53:09;18.77;;;12.15;;
43419;SDS011;29017;51.514;-0.178;2022-09-03T01:56:07;21.45;;;12.93;;
43419;SDS011;29017;51.514;-0.178;2022-09-03T01:58:45;19.98;;;12.43;;
43419;SDS011;29017;51.514;-0.178;2022-09-03T02:01:16;20.60;;;14.13;;
43419;SDS011;29017;51.514;-0.178;2022-09-03T02:03:52;20.00;;;15.15;;
43419;SDS011;29017;51.514;-0.178;2022-09-03T02:08:57;21.70;;;14.98;;
43419;SDS011;29017;51.514;-0.178;2022-09-03T02:11:24;25.05;;;15.45;;
43419;SDS011;29017;51.514;-0.178;2022-09-03T02:13:53;27.52;;;16.98;;
43419;SDS011;29017;51.514;-0.178;2022-09-03T02:16:27;24.10;;;16.13;;
43419;SDS011;29017;51.514;-0.178;2022-09-03T02:18:59;26.85;;;16.63;;
43419;SDS011;29017;51.514;-0.178;2022-09-03T02:21:32;25.58;;;15.98;;
43419;SDS011;29017;51.514;-0.178;2022-09-03T02:24:02;22.25;;;16.48;;
43419;SDS011;29017;51.514;-0.178;2022-09-03T02:26:30;26.30;;;16.15;;
43419;SDS011;29017;51.514;-0.178;2022-09-03T02:28:57;22.15;;;16.30;;
43419;SDS011;29017;51.514;-0.178;2022-09-03T02:31:26;23.38;;;16.02;;
43419;SDS011;29017;51.514;-0.178;2022-09-03T02:33:55;23.80;;;15.93;;
43419;SDS011;29017;51.514;-0.178;2022-09-03T02:36:36;27.88;;;17.85;;
43419;SDS011;29017;51.514;-0.178;2022-09-03T02:39:06;29.45;;;19.02;;
43419;SDS011;29017;51.514;-0.178;2022-09-03T02:41:33;24.92;;;17.17;;
43419;SDS011;29017;51.514;-0.178;2022-09-03T02:44:01;26.05;;;18.48;;
43419;SDS011;29017;51.514;-0.178;2022-09-03T02:46:43;27.45;;;17.75;;
43419;SDS011;29017;51.514;-0.178;2022-09-03T02:49:21;26.77;;;18.50;;
43419;SDS011;29017;51.514;-0.178;2022-09-03T02:51:47;31.23;;;18.48;;
43419;SDS011;29017;51.514;-0.178;2022-09-03T02:54:14;26.40;;;17.77;;
43419;SDS011;29017;51.514;-0.178;2022-09-03T02:56:46;30.65;;;18.38;;
43419;SDS011;29017;51.514;-0.178;2022-09-03T02:59:15;27.15;;;18.02;;
43419;SDS011;29017;51.514;-0.178;2022-09-03T03:01:43;26.48;;;17.92;;
43419;SDS011;29017;51.514;-0.178;2022-09-03T03:04:12;26.95;;;17.60;;
43419;SDS011;29017;51.514;-0.178;2022-09-03T03:06:39;26.40;;;18.73;;
43419;SDS011;29017;51.514;-0.178;2022-09-03T03:09:06;26.33;;;18.52;;
43419;SDS011;29017;51.514;-0.178;2022-09-03T03:11:33;30.00;;;19.33;;
43419;SDS011;29017;51.514;-0.178;2022-09-03T03:14:02;29.58;;;17.73;;
43419;SDS011;29017;51.514;-0.178;2022-09-03T03:16:29;26.45;;;17.63;;
43419;SDS011;29017;51.514;-0.178;2022-09-03T03:18:56;25.60;;;17.90;;
43419;SDS011;29017;51.514;-0.178;2022-09-03T03:21:23;26.48;;;17.38;;
43419;SDS011;29017;51.514;-0.178;2022-09-03T03:23:50;26.70;;;17.30;;
43419;SDS011;29017;51.514;-0.178;2022-09-03T03:26:18;27.80;;;17.17;;
43419;SDS011;29017;51.514;-0.178;2022-09-03T03:28:47;26.83;;;17.92;;
43419;SDS011;29017;51.514;-0.178;2022-09-03T03:31:15;32.00;;;19.27;;
43419;SDS011;29017;51.514;-0.178;2022-09-03T03:33:56;28.38;;;17.88;;
43419;SDS011;29017;51.514;-0.178;2022-09-03T03:36:25;25.95;;;17.00;;
43419;SDS011;29017;51.514;-0.178;2022-09-03T03:38:55;25.63;;;16.15;;
43419;SDS011;29017;51.514;-0.178;2022-09-03T03:41:30;24.90;;;16.58;;
43419;SDS011;29017;51.514;-0.178;2022-09-03T03:44:00;23.58;;;15.95;;
43419;SDS011;29017;51.514;-0.178;2022-09-03T03:46:50;26.55;;;17.50;;
43419;SDS011;29017;51.514;-0.178;2022-09-03T03:49:16;22.45;;;14.88;;
43419;SDS011;29017;51.514;-0.178;2022-09-03T03:51:46;23.35;;;15.00;;
43419;SDS011;29017;51.514;-0.178;2022-09-03T03:54:13;24.98;;;15.15;;
43419;SDS011;29017;51.514;-0.178;2022-09-03T03:56:43;26.05;;;15.40;;
43419;SDS011;29017;51.514;-0.178;2022-09-03T03:59:15;26.63;;;16.23;;
43419;SDS011;29017;51.514;-0.178;2022-09-03T04:01:42;22.15;;;15.10;;
43419;SDS011;29017;51.514;-0.178;2022-09-03T04:04:09;25.10;;;17.35;;
43419;SDS011;29017;51.514;-0.178;2022-09-03T04:06:36;25.55;;;16.40;;
43419;SDS011;29017;51.514;-0.178;2022-09-03T04:09:03;22.55;;;15.57;;
43419;SDS011;29017;51.514;-0.178;2022-09-03T04:11:30;21.05;;;13.68;;
43419;SDS011;29017;51.514;-0.178;2022-09-03T04:13:57;24.33;;;14.27;;
43419;SDS011;29017;51.514;-0.178;2022-09-03T04:16:27;21.48;;;14.00;;
43419;SDS011;29017;51.514;-0.178;2022-09-03T04:18:54;20.35;;;14.18;;
43419;SDS011;29017;51.514;-0.178;2022-09-03T04:21:23;20.55;;;15.10;;
43419;SDS011;29017;51.514;-0.178;2022-09-03T04:23:54;24.30;;;15.77;;
43419;SDS011;29017;51.514;-0.178;2022-09-03T04:26:22;22.58;;;14.68;;
43419;SDS011;29017;51.514;-0.178;2022-09-03T04:28:51;22.35;;;14.50;;
43419;SDS011;29017;51.514;-0.178;2022-09-03T04:31:18;21.45;;;15.57;;
43419;SDS011;29017;51.514;-0.178;2022-09-03T04:33:46;28.83;;;17.58;;
43419;SDS011;29017;51.514;-0.178;2022-09-03T04:36:14;26.98;;;17.05;;
43419;SDS011;29017;51.514;-0.178;2022-09-03T04:38:43;29.42;;;19.02;;
43419;SDS011;29017;51.514;-0.178;2022-09-03T04:41:20;28.63;;;19.25;;
43419;SDS011;29017;51.514;-0.178;2022-09-03T04:43:50;33.10;;;21.38;;
43419;SDS011;29017;51.514;-0.178;2022-09-03T04:46:18;29.98;;;19.38;;
43419;SDS011;29017;51.514;-0.178;2022-09-03T04:48:47;30.95;;;19.23;;
43419;SDS011;29017;51.514;-0.178;2022-09-03T04:51:21;29.13;;;20.13;;
43419;SDS011;29017;51.514;-0.178;2022-09-03T04:53:54;28.90;;;18.65;;
43419;SDS011;29017;51.514;-0.178;2022-09-03T04:56:23;29.85;;;18.58;;
43419;SDS011;29017;51.514;-0.178;2022-09-03T04:58:53;27.88;;;18.67;;
43419;SDS011;29017;51.514;-0.178;2022-09-03T05:01:23;30.23;;;18.85;;
43419;SDS011;29017;51.514;-0.178;2022-09-03T05:03:52;28.45;;;19.20;;
43419;SDS011;29017;51.514;-0.178;2022-09-03T05:06:20;29.38;;;17.92;;
43419;SDS011;29017;51.514;-0.178;2022-09-03T05:08:48;31.35;;;19.38;;
43419;SDS011;29017;51.514;-0.178;2022-09-03T05:11:16;34.13;;;18.52;;
43419;SDS011;29017;51.514;-0.178;2022-09-03T05:13:46;31.13;;;18.80;;
43419;SDS011;29017;51.514;-0.178;2022-09-03T05:16:14;37.70;;;23.95;;
43419;SDS011;29017;51.514;-0.178;2022-09-03T05:18:42;32.67;;;20.10;;
43419;SDS011;29017;51.514;-0.178;2022-09-03T05:21:11;31.90;;;20.95;;
43419;SDS011;29017;51.514;-0.178;2022-09-03T05:23:41;32.00;;;20.58;;
43419;SDS011;29017;51.514;-0.178;2022-09-03T05:26:10;34.30;;;22.55;;
43419;SDS011;29017;51.514;-0.178;2022-09-03T05:28:41;34.47;;;21.30;;
43419;SDS011;29017;51.514;-0.178;2022-09-03T05:31:09;34.75;;;21.33;;
43419;SDS011;29017;51.514;-0.178;2022-09-03T05:33:39;36.65;;;23.52;;
43419;SDS011;29017;51.514;-0.178;2022-09-03T05:36:11;41.13;;;24.33;;
43419;SDS011;29017;51.514;-0.178;2022-09-03T05:38:39;41.30;;;25.00;;
43419;SDS011;29017;51.514;-0.178;2022-09-03T05:41:07;41.58;;;24.23;;
43419;SDS011;29017;51.514;-0.178;2022-09-03T05:43:36;42.58;;;25.33;;
43419;SDS011;29017;51.514;-0.178;2022-09-03T05:46:07;42.03;;;25.95;;
43419;SDS011;29017;51.514;-0.178;2022-09-03T05:48:39;41.78;;;26.60;;
43419;SDS011;29017;51.514;-0.178;2022-09-03T05:51:10;40.63;;;26.02;;
43419;SDS011;29017;51.514;-0.178;2022-09-03T05:53:42;44.75;;;27.17;;
43419;SDS011;29017;51.514;-0.178;2022-09-03T05:56:12;44.22;;;26.77;;
43419;SDS011;29017;51.514;-0.178;2022-09-03T05:58:44;44.55;;;27.48;;
43419;SDS011;29017;51.514;-0.178;2022-09-03T06:01:13;45.22;;;28.55;;
43419;SDS011;29017;51.514;-0.178;2022-09-03T06:03:46;50.90;;;30.50;;
43419;SDS011;29017;51.514;-0.178;2022-09-03T06:06:14;50.88;;;29.95;;
43419;SDS011;29017;51.514;-0.178;2022-09-03T06:08:41;51.72;;;30.92;;
43419;SDS011;29017;51.514;-0.178;2022-09-03T06:11:10;52.88;;;32.13;;
43419;SDS011;29017;51.514;-0.178;2022-09-03T06:13:37;52.97;;;30.80;;
43419;SDS011;29017;51.514;-0.178;2022-09-03T06:16:05;50.97;;;32.20;;
43419;SDS011;29017;51.514;-0.178;2022-09-03T06:18:33;53.97;;;32.63;;
43419;SDS011;29017;51.514;-0.178;2022-09-03T06:21:00;55.58;;;32.90;;
43419;SDS011;29017;51.514;-0.178;2022-09-03T06:23:32;51.60;;;31.38;;
43419;SDS011;29017;51.514;-0.178;2022-09-03T06:28:39;57.97;;;37.10;;
43419;SDS011;29017;51.514;-0.178;2022-09-03T06:31:12;57.47;;;34.30;;
43419;SDS011;29017;51.514;-0.178;2022-09-03T06:33:40;48.60;;;32.53;;
43419;SDS011;29017;51.514;-0.178;2022-09-03T06:36:10;55.00;;;32.55;;
43419;SDS011;29017;51.514;-0.178;2022-09-03T06:38:39;49.42;;;30.13;;
43419;SDS011;29017;51.514;-0.178;2022-09-03T06:41:06;47.45;;;29.80;;
43419;SDS011;29017;51.514;-0.178;2022-09-03T06:43:46;49.30;;;31.55;;
43419;SDS011;29017;51.514;-0.178;2022-09-03T06:46:15;51.17;;;32.40;;
43419;SDS011;29017;51.514;-0.178;2022-09-03T06:48:44;53.55;;;33.60;;
43419;SDS011;29017;51.514;-0.178;2022-09-03T06:51:16;55.13;;;34.45;;
43419;SDS011;29017;51.514;-0.178;2022-09-03T06:53:45;51.25;;;32.75;;
43419;SDS011;29017;51.514;-0.178;2022-09-03T06:56:18;51.47;;;31.23;;
43419;SDS011;29017;51.514;-0.178;2022-09-03T06:59:08;46.47;;;29.33;;
43419;SDS011;29017;51.514;-0.178;2022-09-03T07:01:57;46.70;;;29.67;;
43419;SDS011;29017;51.514;-0.178;2022-09-03T07:04:26;48.85;;;31.08;;
43419;SDS011;29017;51.514;-0.178;2022-09-03T07:06:54;45.30;;;28.52;;
43419;SDS011;29017;51.514;-0.178;2022-09-03T07:09:21;42.28;;;27.50;;
43419;SDS011;29017;51.514;-0.178;2022-09-03T07:11:48;43.03;;;28.02;;
43419;SDS011;29017;51.514;-0.178;2022-09-03T07:14:16;44.53;;;28.05;;
43419;SDS011;29017;51.514;-0.178;2022-09-03T07:16:46;43.72;;;30.10;;
43419;SDS011;29017;51.514;-0.178;2022-09-03T07:19:14;53.22;;;32.33;;
43419;SDS011;29017;51.514;-0.178;2022-09-03T07:21:42;46.47;;;29.58;;
43419;SDS011;29017;51.514;-0.178;2022-09-03T07:24:15;46.35;;;30.65;;
43419;SDS011;29017;51.514;-0.178;2022-09-03T07:26:42;45.45;;;28.77;;
43419;SDS011;29017;51.514;-0.178;2022-09-03T07:29:14;44.55;;;28.65;;
43419;SDS011;29017;51.514;-0.178;2022-09-03T07:31:46;49.42;;;29.25;;
43419;SDS011;29017;51.514;-0.178;2022-09-03T07:34:17;38.80;;;27.40;;
43419;SDS011;29017;51.514;-0.178;2022-09-03T07:36:46;40.25;;;26.50;;
43419;SDS011;29017;51.514;-0.178;2022-09-03T07:39:15;33.53;;;23.05;;
43419;SDS011;29017;51.514;-0.178;2022-09-03T07:41:44;33.90;;;23.38;;
43419;SDS011;29017;51.514;-0.178;2022-09-03T07:44:12;33.05;;;21.50;;
43419;SDS011;29017;51.514;-0.178;2022-09-03T07:46:41;31.20;;;21.50;;
43419;SDS011;29017;51.514;-0.178;2022-09-03T07:49:10;32.92;;;20.80;;
43419;SDS011;29017;51.514;-0.178;2022-09-03T07:51:38;31.35;;;19.27;;
43419;SDS011;29017;51.514;-0.178;2022-09-03T07:54:06;27.25;;;18.52;;
43419;SDS011;29017;51.514;-0.178;2022-09-03T07:56:35;26.88;;;17.70;;
43419;SDS011;29017;51.514;-0.178;2022-09-03T07:59:03;28.02;;;19.15;;
43419;SDS011;29017;51.514;-0.178;2022-09-03T08:01:31;30.77;;;21.08;;
43419;SDS011;29017;51.514;-0.178;2022-09-03T08:03:59;32.15;;;21.65;;
43419;SDS011;29017;51.514;-0.178;2022-09-03T08:06:28;37.05;;;21.50;;
43419;SDS011;29017;51.514;-0.178;2022-09-03T08:08:56;29.70;;;19.33;;
43419;SDS011;29017;51.514;-0.178;2022-09-03T08:11:31;25.85;;;17.95;;
43419;SDS011;29017;51.514;-0.178;2022-09-03T08:14:05;25.55;;;17.70;;
43419;SDS011;29017;51.514;-0.178;2022-09-03T08:16:34;23.98;;;16.80;;
43419;SDS011;29017;51.514;-0.178;2022-09-03T08:19:03;27.77;;;16.05;;
43419;SDS011;29017;51.514;-0.178;2022-09-03T08:21:30;24.25;;;16.98;;
43419;SDS011;29017;51.514;-0.178;2022-09-03T08:23:57;23.30;;;16.02;;
43419;SDS011;29017;51.514;-0.178;2022-09-03T08:26:32;21.70;;;14.95;;
43419;SDS011;29017;51.514;-0.178;2022-09-03T08:29:01;23.55;;;14.23;;
43419;SDS011;29017;51.514;-0.178;2022-09-03T08:31:29;21.50;;;14.00;;
43419;SDS011;29017;51.514;-0.178;2022-09-03T08:33:58;21.83;;;14.52;;
43419;SDS011;29017;51.514;-0.178;2022-09-03T08:36:33;15.60;;;10.35;;
43419;SDS011;29017;51.514;-0.178;2022-09-03T08:39:03;20.45;;;11.07;;
43419;SDS011;29017;51.514;-0.178;2022-09-03T08:49:51;14.45;;;9.30;;
43419;SDS011;29017;51.514;-0.178;2022-09-03T08:55:13;12.88;;;7.93;;
43419;SDS011;29017;51.514;-0.178;2022-09-03T08:57:47;13.80;;;9.02;;
43419;SDS011;29017;51.514;-0.178;2022-09-03T09:00:16;12.80;;;7.88;;
43419;SDS011;29017;51.514;-0.178;2022-09-03T09:02:51;12.55;;;7.65;;
43419;SDS011;29017;51.514;-0.178;2022-09-03T09:05:23;11.70;;;7.32;;
43419;SDS011;29017;51.514;-0.178;2022-09-03T09:08:05;13.50;;;6.97;;
43419;SDS011;29017;51.514;-0.178;2022-09-03T09:10:45;15.00;;;9.63;;
43419;SDS011;29017;51.514;-0.178;2022-09-03T09:13:27;11.10;;;7.63;;
43419;SDS011;29017;51.514;-0.178;2022-09-03T09:18:52;11.07;;;5.97;;
43419;SDS011;29017;51.514;-0.178;2022-09-03T09:21:33;7.35;;;4.82;;
43419;SDS011;29017;51.514;-0.178;2022-09-03T09:24:21;6.25;;;4.57;;
43419;SDS011;29017;51.514;-0.178;2022-09-03T09:26:54;8.60;;;5.18;;
43419;SDS011;29017;51.514;-0.178;2022-09-03T09:29:26;8.40;;;6.05;;
43419;SDS011;29017;51.514;-0.178;2022-09-03T09:31:54;7.45;;;5.45;;
43419;SDS011;29017;51.514;-0.178;2022-09-03T09:34:22;9.57;;;5.20;;
43419;SDS011;29017;51.514;-0.178;2022-09-03T09:36:50;8.07;;;6.50;;
43419;SDS011;29017;51.514;-0.178;2022-09-03T09:39:18;8.40;;;4.53;;
43419;SDS011;29017;51.514;-0.178;2022-09-03T09:41:59;7.85;;;4.70;;
43419;SDS011;29017;51.514;-0.178;2022-09-03T09:44:37;8.25;;;5.63;;
43419;SDS011;29017;51.514;-0.178;2022-09-03T09:49:42;7.30;;;5.30;;
43419;SDS011;29017;51.514;-0.178;2022-09-03T09:52:18;9.40;;;7.05;;
43419;SDS011;29017;51.514;-0.178;2022-09-03T09:54:51;7.80;;;4.10;;
43419;SDS011;29017;51.514;-0.178;2022-09-03T09:57:21;8.30;;;4.50;;
43419;SDS011;29017;51.514;-0.178;2022-09-03T10:00:05;8.77;;;5.75;;
43419;SDS011;29017;51.514;-0.178;2022-09-03T10:02:38;9.45;;;5.72;;
43419;SDS011;29017;51.514;-0.178;2022-09-03T10:07:57;8.02;;;4.60;;
43419;SDS011;29017;51.514;-0.178;2022-09-03T10:10:26;9.32;;;4.13;;
43419;SDS011;29017;51.514;-0.178;2022-09-03T10:13:02;9.20;;;4.50;;
43419;SDS011;29017;51.514;-0.178;2022-09-03T10:21:25;8.45;;;3.40;;
43419;SDS011;29017;51.514;-0.178;2022-09-03T10:26:52;9.35;;;3.85;;
43419;SDS011;29017;51.514;-0.178;2022-09-03T10:29:36;7.80;;;3.45;;
43419;SDS011;29017;51.514;-0.178;2022-09-03T10:32:29;5.72;;;2.75;;
43419;SDS011;29017;51.514;-0.178;2022-09-03T10:43:47;6.32;;;3.17;;
43419;SDS011;29017;51.514;-0.178;2022-09-03T10:46:34;3.25;;;2.03;;
43419;SDS011;29017;51.514;-0.178;2022-09-03T10:49:41;3.85;;;2.25;;
43419;SDS011;29017;51.514;-0.178;2022-09-03T10:52:16;43.08;;;26.67;;
43419;SDS011;29017;51.514;-0.178;2022-09-03T10:57:53;6.95;;;3.30;;
43419;SDS011;29017;51.514;-0.178;2022-09-03T11:00:22;18.85;;;3.90;;
43419;SDS011;29017;51.514;-0.178;2022-09-03T11:06:03;8.63;;;2.67;;
43419;SDS011;29017;51.514;-0.178;2022-09-03T11:08:42;5.60;;;2.13;;
43419;SDS011;29017;51.514;-0.178;2022-09-03T11:13:46;7.20;;;1.95;;
43419;SDS011;29017;51.514;-0.178;2022-09-03T11:16:18;5.50;;;2.07;;
43419;SDS011;29017;51.514;-0.178;2022-09-03T11:18:56;6.88;;;2.10;;
43419;SDS011;29017;51.514;-0.178;2022-09-03T11:21:28;3.88;;;2.88;;
43419;SDS011;29017;51.514;-0.178;2022-09-03T11:24:03;3.60;;;2.20;;
43419;SDS011;29017;51.514;-0.178;2022-09-03T11:26:40;5.07;;;2.00;;
43419;SDS011;29017;51.514;-0.178;2022-09-03T11:29:18;6.28;;;2.15;;
43419;SDS011;29017;51.514;-0.178;2022-09-03T11:32:13;2.90;;;2.05;;
43419;SDS011;29017;51.514;-0.178;2022-09-03T11:34:51;3.33;;;2.13;;
43419;SDS011;29017;51.514;-0.178;2022-09-03T11:37:23;6.60;;;2.90;;
43419;SDS011;29017;51.514;-0.178;2022-09-03T11:39:56;2.92;;;2.05;;
43419;SDS011;29017;51.514;-0.178;2022-09-03T11:42:37;4.70;;;2.13;;
43419;SDS011;29017;51.514;-0.178;2022-09-03T11:47:52;5.57;;;2.50;;
43419;SDS011;29017;51.514;-0.178;2022-09-03T11:50:23;5.85;;;1.52;;
43419;SDS011;29017;51.514;-0.178;2022-09-03T11:55:52;4.30;;;1.92;;
43419;SDS011;29017;51.514;-0.178;2022-09-03T12:01:00;5.47;;;2.17;;
43419;SDS011;29017;51.514;-0.178;2022-09-03T12:09:07;2.88;;;1.85;;
43419;SDS011;29017;51.514;-0.178;2022-09-03T12:12:04;3.35;;;1.35;;
43419;SDS011;29017;51.514;-0.178;2022-09-03T12:14:54;1.80;;;0.95;;
43419;SDS011;29017;51.514;-0.178;2022-09-03T12:23:52;1.60;;;0.90;;
43419;SDS011;29017;51.514;-0.178;2022-09-03T12:26:24;1.48;;;1.08;;
43419;SDS011;29017;51.514;-0.178;2022-09-03T12:28:56;3.90;;;1.10;;
43419;SDS011;29017;51.514;-0.178;2022-09-03T12:31:26;3.83;;;1.00;;
43419;SDS011;29017;51.514;-0.178;2022-09-03T12:33:59;4.18;;;1.02;;
43419;SDS011;29017;51.514;-0.178;2022-09-03T12:36:36;3.25;;;1.15;;
43419;SDS011;29017;51.514;-0.178;2022-09-03T12:39:17;4.30;;;1.23;;
43419;SDS011;29017;51.514;-0.178;2022-09-03T12:42:12;2.55;;;0.80;;
43419;SDS011;29017;51.514;-0.178;2022-09-03T12:44:46;1.67;;;0.98;;
43419;SDS011;29017;51.514;-0.178;2022-09-03T12:47:14;2.20;;;1.13;;
43419;SDS011;29017;51.514;-0.178;2022-09-03T12:50:10;3.75;;;1.25;;
43419;SDS011;29017;51.514;-0.178;2022-09-03T12:52:52;2.00;;;1.25;;
43419;SDS011;29017;51.514;-0.178;2022-09-03T12:55:35;2.83;;;0.90;;
43419;SDS011;29017;51.514;-0.178;2022-09-03T12:58:12;2.10;;;1.00;;
43419;SDS011;29017;51.514;-0.178;2022-09-03T13:00:42;4.25;;;1.98;;
43419;SDS011;29017;51.514;-0.178;2022-09-03T13:03:29;3.33;;;2.07;;
43419;SDS011;29017;51.514;-0.178;2022-09-03T13:06:07;4.40;;;1.80;;
43419;SDS011;29017;51.514;-0.178;2022-09-03T13:11:20;3.45;;;1.73;;
43419;SDS011;29017;51.514;-0.178;2022-09-03T13:19:07;5.32;;;2.15;;
43419;SDS011;29017;51.514;-0.178;2022-09-03T13:21:45;6.57;;;2.45;;
43419;SDS011;29017;51.514;-0.178;2022-09-03T13:29:42;5.07;;;2.65;;
43419;SDS011;29017;51.514;-0.178;2022-09-03T13:32:35;6.22;;;2.30;;
43419;SDS011;29017;51.514;-0.178;2022-09-03T13:38:07;3.90;;;2.58;;
43419;SDS011;29017;51.514;-0.178;2022-09-03T13:40:36;2.95;;;1.88;;
43419;SDS011;29017;51.514;-0.178;2022-09-03T13:46:05;4.70;;;2.78;;
43419;SDS011;29017;51.514;-0.178;2022-09-03T13:48:43;5.18;;;2.30;;
43419;SDS011;29017;51.514;-0.178;2022-09-03T13:51:30;2.97;;;2.03;;
43419;SDS011;29017;51.514;-0.178;2022-09-03T13:59:52;3.33;;;2.20;;
43419;SDS011;29017;51.514;-0.178;2022-09-03T14:07:53;4.47;;;2.53;;
43419;SDS011;29017;51.514;-0.178;2022-09-03T14:13:05;6.80;;;2.33;;
43419;SDS011;29017;51.514;-0.178;2022-09-03T14:21:27;4.35;;;2.58;;
43419;SDS011;29017;51.514;-0.178;2022-09-03T14:24:02;4.72;;;2.90;;
43419;SDS011;29017;51.514;-0.178;2022-09-03T14:26:47;4.00;;;2.90;;
43419;SDS011;29017;51.514;-0.178;2022-09-03T14:29:17;7.75;;;2.92;;
43419;SDS011;29017;51.514;-0.178;2022-09-03T14:37:06;4.88;;;1.50;;
43419;SDS011;29017;51.514;-0.178;2022-09-03T14:39:54;2.25;;;1.60;;
43419;SDS011;29017;51.514;-0.178;2022-09-03T14:45:39;2.47;;;1.95;;
43419;SDS011;29017;51.514;-0.178;2022-09-03T15:09:03;2.67;;;1.60;;
43419;SDS011;29017;51.514;-0.178;2022-09-03T15:12:00;3.55;;;1.35;;
43419;SDS011;29017;51.514;-0.178;2022-09-03T15:14:48;3.08;;;1.35;;
43419;SDS011;29017;51.514;-0.178;2022-09-03T15:28:59;3.90;;;1.42;;
43419;SDS011;29017;51.514;-0.178;2022-09-03T15:36:44;3.63;;;1.73;;
43419;SDS011;29017;51.514;-0.178;2022-09-03T15:39:22;5.03;;;2.00;;
43419;SDS011;29017;51.514;-0.178;2022-09-03T15:41:53;3.33;;;1.88;;
43419;SDS011;29017;51.514;-0.178;2022-09-03T15:44:24;3.45;;;1.65;;
43419;SDS011;29017;51.514;-0.178;2022-09-03T15:49:59;3.00;;;1.92;;
43419;SDS011;29017;51.514;-0.178;2022-09-03T15:52:40;5.30;;;2.45;;
43419;SDS011;29017;51.514;-0.178;2022-09-03T15:55:14;3.00;;;2.10;;
43419;SDS011;29017;51.514;-0.178;2022-09-03T16:00:53;6.07;;;4.13;;
43419;SDS011;29017;51.514;-0.178;2022-09-03T16:03:36;4.25;;;2.63;;
43419;SDS011;29017;51.514;-0.178;2022-09-03T16:06:20;5.53;;;2.65;;
43419;SDS011;29017;51.514;-0.178;2022-09-03T16:16:05;6.78;;;3.75;;
43419;SDS011;29017;51.514;-0.178;2022-09-03T16:18:54;6.68;;;3.83;;
43419;SDS011;29017;51.514;-0.178;2022-09-03T16:27:51;7.38;;;3.28;;
43419;SDS011;29017;51.514;-0.178;2022-09-03T16:30:51;6.40;;;3.53;;
43419;SDS011;29017;51.514;-0.178;2022-09-03T16:40:47;5.85;;;3.65;;
43419;SDS011;29017;51.514;-0.178;2022-09-03T16:47:10;9.80;;;4.15;;
43419;SDS011;29017;51.514;-0.178;2022-09-03T16:50:43;6.28;;;3.53;;
43419;SDS011;29017;51.514;-0.178;2022-09-03T16:54:08;6.25;;;3.20;;
43419;SDS011;29017;51.514;-0.178;2022-09-03T16:57:13;6.18;;;3.40;;
43419;SDS011;29017;51.514;-0.178;2022-09-03T16:59:58;5.53;;;3.30;;
43419;SDS011;29017;51.514;-0.178;2022-09-03T17:09:09;6.25;;;3.05;;
43419;SDS011;29017;51.514;-0.178;2022-09-03T17:26:10;4.65;;;2.70;;
43419;SDS011;29017;51.514;-0.178;2022-09-03T17:29:06;3.65;;;2.63;;
43419;SDS011;29017;51.514;-0.178;2022-09-03T17:31:49;4.35;;;2.67;;
43419;SDS011;29017;51.514;-0.178;2022-09-03T17:34:27;5.00;;;3.30;;
43419;SDS011;29017;51.514;-0.178;2022-09-03T17:37:07;4.63;;;3.33;;
43419;SDS011;29017;51.514;-0.178;2022-09-03T17:40:11;6.63;;;3.22;;
43419;SDS011;29017;51.514;-0.178;2022-09-03T17:42:55;6.07;;;3.28;;
43419;SDS011;29017;51.514;-0.178;2022-09-03T17:45:58;5.90;;;2.72;;
43419;SDS011;29017;51.514;-0.178;2022-09-03T17:48:40;5.28;;;2.85;;
43419;SDS011;29017;51.514;-0.178;2022-09-03T17:56:41;6.72;;;3.13;;
43419;SDS011;29017;51.514;-0.178;2022-09-03T17:59:14;6.25;;;3.00;;
43419;SDS011;29017;51.514;-0.178;2022-09-03T18:01:49;5.03;;;2.42;;
43419;SDS011;29017;51.514;-0.178;2022-09-03T18:07:18;5.38;;;3.15;;
43419;SDS011;29017;51.514;-0.178;2022-09-03T18:09:53;9.13;;;3.35;;
43419;SDS011;29017;51.514;-0.178;2022-09-03T18:12:40;5.95;;;3.38;;
43419;SDS011;29017;51.514;-0.178;2022-09-03T18:15:35;5.50;;;4.22;;
43419;SDS011;29017;51.514;-0.178;2022-09-03T18:18:09;7.60;;;5.45;;
43419;SDS011;29017;51.514;-0.178;2022-09-03T18:20:40;7.22;;;3.78;;
43419;SDS011;29017;51.514;-0.178;2022-09-03T18:24:01;10.90;;;4.45;;
43419;SDS011;29017;51.514;-0.178;2022-09-03T18:26:54;7.80;;;4.07;;
43419;SDS011;29017;51.514;-0.178;2022-09-03T18:29:53;8.83;;;3.60;;
43419;SDS011;29017;51.514;-0.178;2022-09-03T18:32:46;6.35;;;3.70;;
43419;SDS011;29017;51.514;-0.178;2022-09-03T18:35:32;9.13;;;4.10;;
43419;SDS011;29017;51.514;-0.178;2022-09-03T18:38:25;6.45;;;3.70;;
43419;SDS011;29017;51.514;-0.178;2022-09-03T18:50:33;9.32;;;4.50;;
43419;SDS011;29017;51.514;-0.178;2022-09-03T18:53:41;7.53;;;4.40;;
43419;SDS011;29017;51.514;-0.178;2022-09-03T18:56:39;10.07;;;4.32;;
43419;SDS011;29017;51.514;-0.178;2022-09-03T19:15:25;9.55;;;4.45;;
43419;SDS011;29017;51.514;-0.178;2022-09-03T19:18:22;8.43;;;4.20;;
43419;SDS011;29017;51.514;-0.178;2022-09-03T19:21:38;6.30;;;3.90;;
43419;SDS011;29017;51.514;-0.178;2022-09-03T19:24:32;8.32;;;4.75;;
43419;SDS011;29017;51.514;-0.178;2022-09-03T19:27:25;6.80;;;3.78;;
43419;SDS011;29017;51.514;-0.178;2022-09-03T19:46:18;6.75;;;3.63;;
43419;SDS011;29017;51.514;-0.178;2022-09-03T19:49:30;6.22;;;3.45;;
43419;SDS011;29017;51.514;-0.178;2022-09-03T19:55:38;7.32;;;3.97;;
43419;SDS011;29017;51.514;-0.178;2022-09-03T19:58:33;5.95;;;4.13;;
43419;SDS011;29017;51.514;-0.178;2022-09-03T20:01:23;6.30;;;3.65;;
43419;SDS011;29017;51.514;-0.178;2022-09-03T20:04:14;5.43;;;3.35;;
43419;SDS011;29017;51.514;-0.178;2022-09-03T20:07:00;8.60;;;3.83;;
43419;SDS011;29017;51.514;-0.178;2022-09-03T20:09:49;5.30;;;3.17;;
43419;SDS011;29017;51.514;-0.178;2022-09-03T20:12:38;9.15;;;3.45;;
43419;SDS011;29017;51.514;-0.178;2022-09-03T20:15:10;7.78;;;3.58;;
43419;SDS011;29017;51.514;-0.178;2022-09-03T20:17:59;7.53;;;4.20;;